Time;durP1;ratioP1;P1;durP2;ratioP2;P2;SDS_P1;SDS_P2;PMS_P1;PMS_P2;Temp;Humidity;BMP_temperature;BMP_pressure;BME280_temperature;BME280_humidity;BME280_pressure;Samples;Min_cycle;Max_cycle;Signal;HPM_P1;HPM_P2
2022/10/08 00:00:48;;;;;;;;;7.50;3.50;;;;;;;;5044411;28;61893;-74
2022/10/08 00:03:14;;;;;;;;;2.75;2.00;;;;;;;;5044531;28;61828;-74
2022/10/08 00:05:40;;;;;;;;;4.00;3.00;;;;;;;;5044001;28;61881;-74
2022/10/08 00:08:06;;;;;;;;;3.50;3.50;;;;;;;;5044718;28;61683;-75
2022/10/08 00:10:31;;;;;;;;;4.75;4.00;;;;;;;;5044666;28;61767;-75
2022/10/08 00:12:57;;;;;;;;;3.25;2.00;;;;;;;;5045028;28;61794;-74
2022/10/08 00:15:22;;;;;;;;;3.00;2.00;;;;;;;;5043559;28;61652;-75
2022/10/08 00:17:48;;;;;;;;;2.00;2.00;;;;;;;;5044061;28;62156;-74
2022/10/08 00:20:13;;;;;;;;;2.75;2.75;;;;;;;;5026043;28;62141;-75
2022/10/08 00:22:38;;;;;;;;;2.50;2.50;;;;;;;;5026992;28;62090;-74
2022/10/08 00:25:04;;;;;;;;;3.00;3.00;;;;;;;;5043703;28;61868;-75
2022/10/08 00:27:29;;;;;;;;;1.50;1.50;;;;;;;;5044193;28;61943;-75
2022/10/08 00:29:54;;;;;;;;;3.00;2.00;;;;;;;;5044146;28;62537;-75
2022/10/08 00:32:20;;;;;;;;;6.00;3.00;;;;;;;;5043697;28;62183;-74
2022/10/08 00:34:46;;;;;;;;;4.00;3.00;;;;;;;;5025692;28;64035;-74
2022/10/08 00:37:11;;;;;;;;;4.00;2.25;;;;;;;;5044053;28;61867;-74
2022/10/08 00:39:36;;;;;;;;;2.25;2.00;;;;;;;;5044072;28;61836;-74
2022/10/08 00:42:02;;;;;;;;;3.50;3.50;;;;;;;;5044249;28;61784;-75
2022/10/08 00:44:45;;;;;;;;;3.25;2.25;;;;;;;;5043083;28;62678;-75
2022/10/08 00:47:15;;;;;;;;;2.00;1.50;;;;;;;;5044018;28;61888;-74
2022/10/08 00:49:40;;;;;;;;;7.25;2.75;;;;;;;;5043461;28;61703;-74
2022/10/08 00:52:06;;;;;;;;;2.75;2.75;;;;;;;;5026025;28;61944;-75
2022/10/08 00:54:31;;;;;;;;;4.50;3.00;;;;;;;;5042868;28;62578;-74
2022/10/08 00:56:57;;;;;;;;;2.75;2.75;;;;;;;;5043725;28;61799;-75
2022/10/08 00:59:22;;;;;;;;;3.00;3.00;;;;;;;;5043737;28;61807;-75
2022/10/08 01:01:48;;;;;;;;;2.00;2.00;;;;;;;;5043582;28;61685;-74
2022/10/08 01:04:14;;;;;;;;;5.50;2.50;;;;;;;;5024910;28;64240;-74
2022/10/08 01:06:55;;;;;;;;;6.00;2.50;;;;;;;;5043591;28;61917;-74
2022/10/08 01:09:28;;;;;;;;;5.00;2.00;;;;;;;;5042826;28;61883;-74
2022/10/08 01:12:12;;;;;;;;;6.75;3.25;;;;;;;;5043638;28;62157;-74
2022/10/08 01:14:47;;;;;;;;;3.50;2.00;;;;;;;;5024789;28;63895;-74
2022/10/08 01:17:24;;;;;;;;;6.25;2.50;;;;;;;;5043070;28;61951;-74
2022/10/08 01:19:55;;;;;;;;;9.75;3.50;;;;;;;;5043401;28;61781;-75
2022/10/08 01:22:39;;;;;;;;;2.50;2.50;;;;;;;;5043392;28;61775;-75
2022/10/08 01:25:32;;;;;;;;;5.25;3.25;;;;;;;;5042517;28;61822;-74
2022/10/08 01:28:02;;;;;;;;;3.00;3.00;;;;;;;;5043001;28;61664;-75
2022/10/08 01:30:29;;;;;;;;;4.50;3.00;;;;;;;;5025286;28;61987;-74
2022/10/08 01:33:11;;;;;;;;;4.25;4.00;;;;;;;;5024731;28;61911;-74
2022/10/08 01:35:39;;;;;;;;;1.75;1.75;;;;;;;;5024380;28;64001;-74
2022/10/08 01:38:05;;;;;;;;;4.00;3.00;;;;;;;;5047663;28;61865;-74
2022/10/08 01:40:37;;;;;;;;;3.25;2.00;;;;;;;;5042399;28;62226;-74
2022/10/08 01:43:06;;;;;;;;;3.00;2.00;;;;;;;;5042867;28;61735;-75
2022/10/08 01:45:38;;;;;;;;;3.00;2.00;;;;;;;;5041742;28;61834;-74
2022/10/08 01:48:05;;;;;;;;;3.75;2.00;;;;;;;;5042489;28;61756;-75
2022/10/08 01:50:33;;;;;;;;;1.75;1.00;;;;;;;;5042298;28;62182;-74
2022/10/08 01:53:03;;;;;;;;;2.00;2.00;;;;;;;;5043060;28;61754;-75
2022/10/08 01:55:35;;;;;;;;;3.00;1.00;;;;;;;;5041907;28;62181;-75
2022/10/08 01:58:02;;;;;;;;;4.75;2.00;;;;;;;;5024938;28;61919;-75
2022/10/08 02:00:31;;;;;;;;;6.00;3.00;;;;;;;;5042998;28;61786;-75
2022/10/08 02:02:56;;;;;;;;;2.25;2.25;;;;;;;;5024508;28;61880;-74
2022/10/08 02:05:23;;;;;;;;;7.00;2.50;;;;;;;;5024315;28;64716;-75
2022/10/08 02:07:49;;;;;;;;;3.00;1.00;;;;;;;;5042245;28;61942;-74
2022/10/08 02:10:20;;;;;;;;;1.00;1.00;;;;;;;;5042690;28;61805;-74
2022/10/08 02:12:45;;;;;;;;;1.50;1.50;;;;;;;;5042984;28;61696;-74
2022/10/08 02:15:12;;;;;;;;;1.25;1.25;;;;;;;;5023978;28;63212;-74
2022/10/08 02:17:43;;;;;;;;;4.25;3.25;;;;;;;;5042122;28;61789;-74
2022/10/08 02:20:15;;;;;;;;;1.75;1.75;;;;;;;;5024568;28;61802;-74
2022/10/08 02:23:01;;;;;;;;;6.75;3.00;;;;;;;;5042567;28;61689;-74
2022/10/08 02:25:39;;;;;;;;;4.75;4.00;;;;;;;;5034265;28;61894;-74
2022/10/08 02:28:08;;;;;;;;;1.00;1.00;;;;;;;;5042575;28;61861;-74
2022/10/08 02:30:37;;;;;;;;;4.00;4.00;;;;;;;;5042332;28;61940;-74
2022/10/08 02:33:07;;;;;;;;;3.50;2.00;;;;;;;;5024308;28;61753;-74
2022/10/08 02:35:43;;;;;;;;;2.50;2.00;;;;;;;;5041769;28;62189;-74
2022/10/08 02:38:29;;;;;;;;;4.00;2.00;;;;;;;;5019223;28;61784;-74
2022/10/08 02:40:57;;;;;;;;;1.75;1.75;;;;;;;;5041609;28;61747;-75
2022/10/08 02:43:26;;;;;;;;;1.00;1.00;;;;;;;;5042537;28;61794;-75
2022/10/08 02:45:56;;;;;;;;;3.00;1.50;;;;;;;;5023402;28;64264;-74
2022/10/08 02:48:32;;;;;;;;;0.75;0.75;;;;;;;;5041583;28;61901;-74
2022/10/08 02:51:00;;;;;;;;;1.00;1.00;;;;;;;;5041622;28;62105;-74
2022/10/08 02:53:26;;;;;;;;;4.75;2.00;;;;;;;;5024194;28;62125;-74
2022/10/08 02:55:52;;;;;;;;;1.00;1.00;;;;;;;;5041287;28;61734;-74
2022/10/08 02:58:17;;;;;;;;;8.25;0.75;;;;;;;;5042110;28;61731;-74
2022/10/08 03:00:48;;;;;;;;;1.50;1.00;;;;;;;;5041930;28;61941;-74
2022/10/08 03:03:15;;;;;;;;;0.50;0.50;;;;;;;;5042080;28;61982;-74
2022/10/08 03:05:41;;;;;;;;;2.00;2.00;;;;;;;;5040204;28;62871;-74
2022/10/08 03:08:09;;;;;;;;;2.00;1.00;;;;;;;;5023580;28;61827;-74
2022/10/08 03:10:37;;;;;;;;;1.75;1.75;;;;;;;;5041987;28;61951;-74
2022/10/08 03:13:03;;;;;;;;;1.00;1.00;;;;;;;;5041989;28;62182;-74
2022/10/08 03:15:30;;;;;;;;;1.75;1.50;;;;;;;;5041487;28;61767;-75
2022/10/08 03:17:56;;;;;;;;;0.50;0.50;;;;;;;;5041716;28;61664;-75
2022/10/08 03:20:22;;;;;;;;;1.75;1.50;;;;;;;;5023822;28;61758;-74
2022/10/08 03:22:47;;;;;;;;;2.00;2.00;;;;;;;;5041580;28;62327;-74
2022/10/08 03:25:12;;;;;;;;;2.00;2.00;;;;;;;;5041124;28;62679;-74
2022/10/08 03:27:38;;;;;;;;;1.00;1.00;;;;;;;;5041799;28;61774;-74
2022/10/08 03:30:03;;;;;;;;;1.75;1.25;;;;;;;;5041753;28;62012;-74
2022/10/08 03:32:28;;;;;;;;;4.75;2.75;;;;;;;;5042979;28;61965;-74
2022/10/08 03:34:54;;;;;;;;;6.50;1.00;;;;;;;;5044624;28;62871;-74
2022/10/08 03:37:19;;;;;;;;;2.75;2.00;;;;;;;;5048106;28;62189;-74
2022/10/08 03:39:44;;;;;;;;;7.75;2.50;;;;;;;;5027508;28;62115;-74
2022/10/08 03:42:10;;;;;;;;;4.00;1.50;;;;;;;;5045355;28;61856;-74
2022/10/08 03:44:35;;;;;;;;;5.75;1.75;;;;;;;;5044899;28;62136;-74
2022/10/08 03:47:00;;;;;;;;;1.00;1.00;;;;;;;;5044659;28;62232;-74
2022/10/08 03:49:26;;;;;;;;;1.00;1.00;;;;;;;;5044796;28;61964;-74
2022/10/08 03:51:51;;;;;;;;;1.75;1.75;;;;;;;;5044556;28;61886;-74
2022/10/08 03:54:16;;;;;;;;;4.25;1.00;;;;;;;;5044521;28;62012;-74
2022/10/08 03:56:41;;;;;;;;;1.00;1.00;;;;;;;;5045122;28;62159;-74
2022/10/08 03:59:07;;;;;;;;;1.00;1.00;;;;;;;;5026792;28;62238;-75
2022/10/08 04:01:32;;;;;;;;;3.25;1.00;;;;;;;;5045024;28;61877;-74
2022/10/08 04:03:57;;;;;;;;;3.00;1.75;;;;;;;;5043940;28;62130;-74
2022/10/08 04:06:23;;;;;;;;;3.25;2.00;;;;;;;;5044653;28;61973;-73
2022/10/08 04:08:48;;;;;;;;;2.00;2.00;;;;;;;;5026659;28;62193;-74
2022/10/08 04:11:14;;;;;;;;;3.00;1.75;;;;;;;;5026723;28;61909;-74
2022/10/08 04:13:40;;;;;;;;;1.25;1.25;;;;;;;;5044006;28;61929;-74
2022/10/08 04:16:07;;;;;;;;;1.00;1.00;;;;;;;;5026531;28;61901;-74
2022/10/08 04:18:33;;;;;;;;;3.00;1.00;;;;;;;;5026102;28;61789;-74
2022/10/08 04:21:02;;;;;;;;;2.00;2.00;;;;;;;;5044217;28;62121;-74
2022/10/08 04:23:28;;;;;;;;;0.75;0.50;;;;;;;;5026308;28;64011;-74
2022/10/08 04:25:53;;;;;;;;;3.50;2.00;;;;;;;;5044433;28;61835;-74
2022/10/08 04:28:19;;;;;;;;;2.00;2.00;;;;;;;;5044442;28;61711;-74
2022/10/08 04:30:58;;;;;;;;;3.00;3.00;;;;;;;;5026355;28;62152;-74
2022/10/08 04:33:24;;;;;;;;;6.00;4.00;;;;;;;;5043465;28;61966;-74
2022/10/08 04:35:49;;;;;;;;;6.00;3.00;;;;;;;;5044968;28;61934;-75
2022/10/08 04:38:14;;;;;;;;;7.00;5.25;;;;;;;;5046360;28;61745;-74
2022/10/08 04:40:40;;;;;;;;;8.00;6.25;;;;;;;;5026423;28;62024;-74
2022/10/08 04:43:05;;;;;;;;;7.25;5.50;;;;;;;;5042623;28;61704;-74
2022/10/08 04:45:30;;;;;;;;;10.00;7.25;;;;;;;;5043279;28;61835;-75
2022/10/08 04:47:55;;;;;;;;;13.75;10.50;;;;;;;;5025682;28;61906;-74
2022/10/08 04:50:21;;;;;;;;;10.00;8.25;;;;;;;;5043214;28;61790;-75
2022/10/08 04:52:46;;;;;;;;;9.50;6.25;;;;;;;;5043265;28;62072;-74
2022/10/08 04:55:11;;;;;;;;;12.25;5.25;;;;;;;;5043516;28;62111;-74
2022/10/08 04:57:36;;;;;;;;;7.75;5.25;;;;;;;;5044048;28;61323;-74
2022/10/08 05:00:03;;;;;;;;;7.00;3.00;;;;;;;;5026058;28;61934;-74
2022/10/08 05:02:29;;;;;;;;;7.00;7.00;;;;;;;;5025049;28;64977;-74
2022/10/08 05:04:54;;;;;;;;;3.00;2.50;;;;;;;;5043339;28;61896;-74
2022/10/08 05:07:19;;;;;;;;;7.50;4.50;;;;;;;;5043664;28;62395;-74
2022/10/08 05:09:44;;;;;;;;;3.00;3.00;;;;;;;;5043775;28;61854;-74
2022/10/08 05:12:09;;;;;;;;;1.00;1.00;;;;;;;;5042818;28;62023;-74
2022/10/08 05:14:35;;;;;;;;;2.00;2.00;;;;;;;;5043930;28;61806;-74
2022/10/08 05:17:00;;;;;;;;;3.75;2.00;;;;;;;;5043405;28;61632;-74
2022/10/08 05:19:25;;;;;;;;;3.00;2.00;;;;;;;;5042982;28;61701;-74
2022/10/08 05:21:50;;;;;;;;;3.50;2.00;;;;;;;;5042962;28;62163;-74
2022/10/08 05:24:16;;;;;;;;;1.00;1.00;;;;;;;;5025820;28;61876;-74
2022/10/08 05:26:41;;;;;;;;;2.00;2.00;;;;;;;;5025815;28;61916;-74
2022/10/08 05:29:06;;;;;;;;;6.50;1.00;;;;;;;;5043687;28;61920;-74
2022/10/08 05:31:32;;;;;;;;;3.75;2.00;;;;;;;;5042808;28;61711;-73
2022/10/08 05:33:58;;;;;;;;;1.75;1.00;;;;;;;;5043338;28;61879;-74
2022/10/08 05:36:24;;;;;;;;;3.50;1.00;;;;;;;;5028608;28;61837;-74
2022/10/08 05:38:50;;;;;;;;;3.50;2.00;;;;;;;;5043828;28;61748;-74
2022/10/08 05:41:20;;;;;;;;;1.00;1.00;;;;;;;;5042836;28;61806;-75
2022/10/08 05:43:45;;;;;;;;;3.00;1.25;;;;;;;;5043384;28;61763;-74
2022/10/08 05:46:11;;;;;;;;;2.00;2.00;;;;;;;;5043531;28;61822;-75
2022/10/08 05:48:36;;;;;;;;;1.50;1.25;;;;;;;;5042687;28;61869;-74
2022/10/08 05:51:05;;;;;;;;;1.00;0.50;;;;;;;;5042134;28;61848;-74
2022/10/08 05:53:33;;;;;;;;;1.00;1.00;;;;;;;;5043091;28;61952;-74
2022/10/08 05:55:59;;;;;;;;;2.25;1.50;;;;;;;;5024518;28;62253;-74
2022/10/08 05:58:24;;;;;;;;;1.00;1.00;;;;;;;;5043184;28;61863;-74
2022/10/08 06:01:00;;;;;;;;;2.50;2.00;;;;;;;;5042388;28;62042;-74
2022/10/08 06:03:26;;;;;;;;;1.50;1.50;;;;;;;;5024562;28;61821;-74
2022/10/08 06:05:51;;;;;;;;;2.00;1.00;;;;;;;;5043114;28;61711;-74
2022/10/08 06:08:17;;;;;;;;;2.25;1.00;;;;;;;;5043031;28;61905;-75
2022/10/08 06:10:49;;;;;;;;;2.75;2.75;;;;;;;;5024171;28;64894;-75
2022/10/08 06:13:14;;;;;;;;;1.00;1.00;;;;;;;;5042902;28;61818;-75
2022/10/08 06:15:39;;;;;;;;;1.00;1.00;;;;;;;;5042774;28;61901;-75
2022/10/08 06:18:05;;;;;;;;;1.75;0.50;;;;;;;;5024500;28;61971;-75
2022/10/08 06:20:31;;;;;;;;;3.50;1.25;;;;;;;;5041264;28;61711;-75
2022/10/08 06:22:56;;;;;;;;;704.75;558.75;;;;;;;;5024307;28;61828;-76
2022/10/08 06:25:21;;;;;;;;;240.25;202.50;;;;;;;;5042601;28;61699;-76
2022/10/08 06:27:46;;;;;;;;;3.75;3.00;;;;;;;;5042763;28;61792;-76
2022/10/08 06:30:12;;;;;;;;;6.25;4.00;;;;;;;;5042170;28;61843;-75
2022/10/08 06:32:37;;;;;;;;;3.25;3.00;;;;;;;;5023784;28;62151;-76
2022/10/08 06:35:03;;;;;;;;;4.50;3.00;;;;;;;;5042415;28;61763;-79
2022/10/08 06:37:28;;;;;;;;;6.50;6.00;;;;;;;;5056249;28;61873;-75
2022/10/08 06:39:53;;;;;;;;;6.00;3.50;;;;;;;;5043745;28;64674;-74
2022/10/08 06:42:18;;;;;;;;;3.50;3.25;;;;;;;;5062536;28;61846;-74
2022/10/08 06:44:44;;;;;;;;;3.50;2.25;;;;;;;;5057400;28;61763;-73
2022/10/08 06:47:09;;;;;;;;;11.50;6.50;;;;;;;;5062519;28;61855;-74
2022/10/08 06:49:34;;;;;;;;;4.50;4.00;;;;;;;;5061080;28;62789;-74
2022/10/08 06:51:59;;;;;;;;;5.00;2.00;;;;;;;;5062375;28;61729;-74
2022/10/08 06:54:26;;;;;;;;;7.50;2.75;;;;;;;;5062612;28;61991;-74
2022/10/08 06:56:52;;;;;;;;;7.50;3.00;;;;;;;;5063308;28;61754;-75
2022/10/08 06:59:17;;;;;;;;;3.00;2.00;;;;;;;;5033888;28;63785;-74
2022/10/08 07:01:42;;;;;;;;;3.00;2.00;;;;;;;;5041549;28;61902;-74
2022/10/08 07:04:09;;;;;;;;;2.50;2.00;;;;;;;;5048010;28;61858;-74
2022/10/08 07:06:35;;;;;;;;;1.00;1.00;;;;;;;;5031845;28;61887;-74
2022/10/08 07:09:01;;;;;;;;;3.50;2.50;;;;;;;;5047764;28;62449;-78
2022/10/08 07:11:26;;;;;;;;;8.75;2.25;;;;;;;;5049809;28;61956;-81
2022/10/08 07:13:53;;;;;;;;;3.50;2.00;;;;;;;;5032618;28;61696;-75
2022/10/08 07:16:19;;;;;;;;;5.75;4.00;;;;;;;;5052035;28;62339;-75
2022/10/08 07:18:45;;;;;;;;;7.00;4.00;;;;;;;;5060740;28;62090;-75
2022/10/08 07:21:12;;;;;;;;;10.00;3.25;;;;;;;;5047439;28;61809;-75
2022/10/08 07:23:37;;;;;;;;;2.25;2.25;;;;;;;;5044172;28;61794;-77
2022/10/08 07:26:08;;;;;;;;;5.00;2.75;;;;;;;;5061306;28;61824;-75
2022/10/08 07:28:38;;;;;;;;;2.00;2.00;;;;;;;;5055874;28;61956;-76
2022/10/08 07:31:07;;;;;;;;;5.50;3.00;;;;;;;;5032522;28;61837;-75
2022/10/08 07:33:32;;;;;;;;;8.75;4.00;;;;;;;;5050534;28;61953;-74
2022/10/08 07:36:07;;;;;;;;;9.50;7.25;;;;;;;;5050675;28;61880;-74
2022/10/08 07:38:32;;;;;;;;;4.25;4.25;;;;;;;;5030255;28;63800;-73
2022/10/08 07:40:57;;;;;;;;;5.00;4.75;;;;;;;;5049970;28;61825;-73
2022/10/08 07:43:22;;;;;;;;;4.00;3.00;;;;;;;;5051119;28;61799;-73
2022/10/08 07:45:49;;;;;;;;;2.50;2.50;;;;;;;;5049323;28;61800;-74
2022/10/08 07:48:17;;;;;;;;;6.00;4.00;;;;;;;;5052295;28;62663;-74
2022/10/08 07:50:42;;;;;;;;;6.00;4.00;;;;;;;;5036693;28;61834;-74
2022/10/08 07:53:07;;;;;;;;;7.50;4.25;;;;;;;;5051182;28;61858;-74
2022/10/08 07:55:32;;;;;;;;;7.75;5.00;;;;;;;;5050100;28;61865;-74
2022/10/08 07:57:58;;;;;;;;;9.25;7.00;;;;;;;;5048848;28;61741;-73
2022/10/08 08:00:23;;;;;;;;;6.00;5.00;;;;;;;;5050863;28;62118;-74
2022/10/08 08:02:48;;;;;;;;;7.25;3.00;;;;;;;;5048535;28;61749;-74
2022/10/08 08:05:13;;;;;;;;;5.75;3.00;;;;;;;;5055247;28;61833;-73
2022/10/08 08:07:39;;;;;;;;;6.75;4.50;;;;;;;;5060662;28;61884;-74
2022/10/08 08:10:04;;;;;;;;;6.00;5.00;;;;;;;;5061378;28;61911;-73
2022/10/08 08:12:29;;;;;;;;;4.25;3.50;;;;;;;;5060454;28;61846;-73
2022/10/08 08:14:55;;;;;;;;;5.75;4.00;;;;;;;;5060780;28;62050;-73
2022/10/08 08:17:20;;;;;;;;;6.50;4.00;;;;;;;;5059346;28;62760;-74
2022/10/08 08:19:45;;;;;;;;;10.75;6.50;;;;;;;;5043765;28;61920;-73
2022/10/08 08:22:11;;;;;;;;;9.00;6.00;;;;;;;;5043349;28;62267;-74
2022/10/08 08:24:36;;;;;;;;;3.00;3.00;;;;;;;;5043030;28;62104;-74
2022/10/08 08:27:01;;;;;;;;;6.00;5.00;;;;;;;;5042377;28;61795;-74
2022/10/08 08:29:26;;;;;;;;;5.50;5.50;;;;;;;;5044906;28;61891;-74
2022/10/08 08:31:52;;;;;;;;;5.50;4.00;;;;;;;;5042592;28;62010;-74
2022/10/08 08:34:18;;;;;;;;;10.00;5.00;;;;;;;;5024788;28;61696;-74
2022/10/08 08:36:46;;;;;;;;;7.25;6.50;;;;;;;;5041812;28;61783;-74
2022/10/08 08:39:16;;;;;;;;;11.25;5.75;;;;;;;;5042614;28;62141;-74
2022/10/08 08:42:00;;;;;;;;;10.50;7.25;;;;;;;;5042239;28;61882;-75
2022/10/08 08:44:28;;;;;;;;;8.75;5.00;;;;;;;;5040349;28;61886;-74
2022/10/08 08:46:56;;;;;;;;;8.00;5.25;;;;;;;;5041863;28;61968;-74
2022/10/08 08:49:24;;;;;;;;;8.75;5.00;;;;;;;;5042384;28;61891;-74
2022/10/08 08:51:50;;;;;;;;;3.00;3.00;;;;;;;;5042354;28;62379;-74
2022/10/08 08:54:16;;;;;;;;;11.50;5.00;;;;;;;;5043119;28;61810;-74
2022/10/08 08:56:41;;;;;;;;;1.50;1.50;;;;;;;;5042225;28;61830;-74
2022/10/08 08:59:28;;;;;;;;;3.25;2.25;;;;;;;;5042669;28;61722;-75
2022/10/08 09:01:56;;;;;;;;;4.75;3.25;;;;;;;;5022658;28;61840;-74
2022/10/08 09:04:40;;;;;;;;;3.75;3.00;;;;;;;;5042538;28;61972;-74
2022/10/08 09:07:07;;;;;;;;;4.00;2.00;;;;;;;;5041703;28;61773;-75
2022/10/08 09:09:36;;;;;;;;;1.00;1.00;;;;;;;;5042499;28;61937;-74
2022/10/08 09:12:15;;;;;;;;;1.75;1.00;;;;;;;;5041982;28;61652;-74
2022/10/08 09:14:42;;;;;;;;;2.25;2.25;;;;;;;;5042533;28;61789;-75
2022/10/08 09:17:12;;;;;;;;;5.25;1.50;;;;;;;;5038823;28;62687;-75
2022/10/08 09:19:39;;;;;;;;;3.50;1.25;;;;;;;;5023702;28;61716;-74
2022/10/08 09:22:10;;;;;;;;;1.00;1.00;;;;;;;;5041773;28;61638;-74
2022/10/08 09:24:36;;;;;;;;;5.00;2.00;;;;;;;;5024641;28;62055;-74
2022/10/08 09:27:01;;;;;;;;;3.75;0.75;;;;;;;;5040991;28;61747;-74
2022/10/08 09:29:32;;;;;;;;;1.00;1.00;;;;;;;;5023739;28;61931;-74
2022/10/08 09:31:57;;;;;;;;;2.00;2.00;;;;;;;;5023731;28;62209;-74
2022/10/08 09:34:23;;;;;;;;;2.75;1.00;;;;;;;;5041805;28;61876;-74
2022/10/08 09:36:53;;;;;;;;;5.00;2.00;;;;;;;;5041057;28;62571;-75
2022/10/08 09:39:26;;;;;;;;;2.75;1.50;;;;;;;;5043739;28;61683;-74
2022/10/08 09:42:16;;;;;;;;;2.75;1.50;;;;;;;;5042297;28;61839;-74
2022/10/08 09:44:41;;;;;;;;;2.75;1.00;;;;;;;;5032962;28;61968;-75
2022/10/08 09:47:10;;;;;;;;;5.75;1.50;;;;;;;;5046149;28;61940;-74
2022/10/08 09:49:37;;;;;;;;;1.75;1.00;;;;;;;;5050740;28;61966;-75
2022/10/08 09:52:11;;;;;;;;;4.00;3.00;;;;;;;;5052518;28;61902;-74
2022/10/08 09:54:41;;;;;;;;;1.00;1.00;;;;;;;;5052435;28;61801;-74
2022/10/08 09:57:07;;;;;;;;;5.75;3.50;;;;;;;;5028808;28;63446;-75
2022/10/08 09:59:37;;;;;;;;;4.00;2.25;;;;;;;;5042277;28;61970;-74
2022/10/08 10:02:06;;;;;;;;;0.25;0.25;;;;;;;;5026786;28;61862;-74
2022/10/08 10:04:37;;;;;;;;;2.25;1.00;;;;;;;;5025133;28;61890;-75
2022/10/08 10:07:03;;;;;;;;;3.00;1.75;;;;;;;;5046584;28;62633;-74
2022/10/08 10:09:28;;;;;;;;;2.50;2.25;;;;;;;;5047779;28;61838;-74
2022/10/08 10:12:09;;;;;;;;;2.00;2.00;;;;;;;;5051802;28;62062;-74
2022/10/08 10:14:41;;;;;;;;;0.00;0.00;;;;;;;;5052958;28;62036;-74
2022/10/08 10:17:17;;;;;;;;;2.00;0.75;;;;;;;;5027717;28;63765;-75
2022/10/08 10:19:46;;;;;;;;;4.00;2.00;;;;;;;;5045400;28;62633;-75
2022/10/08 10:22:19;;;;;;;;;1.00;1.00;;;;;;;;5050219;28;61887;-75
2022/10/08 10:24:54;;;;;;;;;1.25;0.50;;;;;;;;5051331;28;61881;-75
2022/10/08 10:27:29;;;;;;;;;1.00;0.25;;;;;;;;5048000;28;62031;-75
2022/10/08 10:29:57;;;;;;;;;1.75;1.50;;;;;;;;5050128;28;61844;-75
2022/10/08 10:32:26;;;;;;;;;0.50;0.50;;;;;;;;5048808;28;61993;-75
2022/10/08 10:34:56;;;;;;;;;3.00;2.00;;;;;;;;5022452;28;61954;-76
2022/10/08 10:37:28;;;;;;;;;0.75;0.75;;;;;;;;5054579;28;61834;-74
2022/10/08 10:40:16;;;;;;;;;3.75;1.00;;;;;;;;5044630;28;62060;-75
2022/10/08 10:43:01;;;;;;;;;0.00;0.00;;;;;;;;5062514;28;61743;-75
2022/10/08 10:45:30;;;;;;;;;0.00;0.00;;;;;;;;5051827;28;62846;-76
2022/10/08 10:47:55;;;;;;;;;2.75;1.00;;;;;;;;5062230;28;62055;-76
2022/10/08 10:50:41;;;;;;;;;1.00;1.00;;;;;;;;5062000;28;61811;-76
2022/10/08 10:53:06;;;;;;;;;3.75;2.00;;;;;;;;4999909;28;62257;-76
2022/10/08 10:55:39;;;;;;;;;1.25;1.00;;;;;;;;5000276;28;62206;-77
2022/10/08 10:58:23;;;;;;;;;0.00;0.00;;;;;;;;4999890;28;61810;-77
2022/10/08 11:01:08;;;;;;;;;0.75;0.00;;;;;;;;5000050;28;61841;-77
2022/10/08 11:03:44;;;;;;;;;7.75;6.50;;;;;;;;4998920;28;61893;-77
2022/10/08 11:06:28;;;;;;;;;2.33;1.00;;;;;;;;5000460;28;61944;-76
2022/10/08 11:09:05;;;;;;;;;3.00;0.00;;;;;;;;4999434;28;62732;-76
2022/10/08 11:11:37;;;;;;;;;1.25;1.25;;;;;;;;4999843;28;61792;-76
2022/10/08 11:14:21;;;;;;;;;2.00;1.00;;;;;;;;5000164;28;62232;-75
2022/10/08 11:17:09;;;;;;;;;0.00;0.00;;;;;;;;4997028;28;61988;-76
2022/10/08 11:19:34;;;;;;;;;0.00;0.00;;;;;;;;4978621;28;63010;-76
2022/10/08 11:22:04;;;;;;;;;0.00;0.00;;;;;;;;4984530;28;62052;-75
2022/10/08 11:24:50;;;;;;;;;1.00;1.00;;;;;;;;4987915;28;62392;-77
2022/10/08 11:27:34;;;;;;;;;0.00;0.00;;;;;;;;4972199;28;62033;-75
2022/10/08 11:30:13;;;;;;;;;2.50;1.00;;;;;;;;5008753;28;61964;-77
2022/10/08 11:32:39;;;;;;;;;0.00;0.00;;;;;;;;5030541;28;62083;-77
2022/10/08 11:35:04;;;;;;;;;0.00;0.00;;;;;;;;5047589;28;61996;-74
2022/10/08 11:37:49;;;;;;;;;0.00;0.00;;;;;;;;5051256;28;61735;-76
2022/10/08 11:40:25;;;;;;;;;1.00;0.00;;;;;;;;5049072;28;63233;-77
2022/10/08 11:43:02;;;;;;;;;0.50;0.50;;;;;;;;5030985;28;61952;-77
2022/10/08 11:45:40;;;;;;;;;0.75;0.75;;;;;;;;5049653;28;61880;-77
2022/10/08 11:48:24;;;;;;;;;0.00;0.00;;;;;;;;5048968;28;61899;-77
2022/10/08 11:50:49;;;;;;;;;0.50;0.50;;;;;;;;5047775;28;61908;-77
2022/10/08 11:53:20;;;;;;;;;0.00;0.00;;;;;;;;5051306;28;61752;-78
2022/10/08 11:55:48;;;;;;;;;0.67;0.67;;;;;;;;5051518;28;62400;-77
2022/10/08 11:58:22;;;;;;;;;0.00;0.00;;;;;;;;5035535;28;61815;-77
2022/10/08 12:00:49;;;;;;;;;0.00;0.00;;;;;;;;5033323;28;64054;-77
2022/10/08 12:03:23;;;;;;;;;0.00;0.00;;;;;;;;5034389;28;62346;-77
2022/10/08 12:05:51;;;;;;;;;2.00;1.00;;;;;;;;5050289;28;62073;-77
2022/10/08 12:08:36;;;;;;;;;0.00;0.00;;;;;;;;5045351;28;61735;-77
2022/10/08 12:11:19;;;;;;;;;0.00;0.00;;;;;;;;5053976;28;61871;-77
2022/10/08 12:14:05;;;;;;;;;1.00;0.67;;;;;;;;5050224;28;61769;-77
2022/10/08 12:16:49;;;;;;;;;0.00;0.00;;;;;;;;5036062;28;62242;-79
2022/10/08 12:19:33;;;;;;;;;2.33;0.67;;;;;;;;5034506;28;61886;-79
2022/10/08 12:22:00;;;;;;;;;1.67;0.67;;;;;;;;5050350;28;62387;-78
2022/10/08 12:24:37;;;;;;;;;0.00;0.00;;;;;;;;5028016;28;61902;-77
2022/10/08 12:27:15;;;;;;;;;1.33;0.33;;;;;;;;5031723;28;61715;-77
2022/10/08 12:29:59;;;;;;;;;0.00;0.00;;;;;;;;5059200;28;62200;-77
2022/10/08 12:32:32;;;;;;;;;0.00;0.00;;;;;;;;5040710;28;63866;-77
2022/10/08 12:34:58;;;;;;;;;0.00;0.00;;;;;;;;5040501;28;61981;-77
2022/10/08 12:37:34;;;;;;;;;0.00;0.00;;;;;;;;5033144;28;61886;-77
2022/10/08 12:40:02;;;;;;;;;1.00;0.00;;;;;;;;5059733;28;61970;-77
2022/10/08 12:42:31;;;;;;;;;1.00;0.00;;;;;;;;5058601;28;62035;-80
2022/10/08 12:45:15;;;;;;;;;3.00;1.00;;;;;;;;5044861;28;62000;-81
2022/10/08 12:47:46;;;;;;;;;1.00;0.00;;;;;;;;5055549;28;62004;-81
2022/10/08 12:50:14;;;;;;;;;1.00;1.00;;;;;;;;5038158;28;62193;-78
2022/10/08 12:52:40;;;;;;;;;0.00;0.00;;;;;;;;5055841;28;62889;-79
2022/10/08 12:55:05;;;;;;;;;2.00;1.00;;;;;;;;5023838;28;61925;-80
2022/10/08 12:57:33;;;;;;;;;0.33;0.33;;;;;;;;5051976;28;62112;-80
2022/10/08 12:59:59;;;;;;;;;2.00;0.00;;;;;;;;5040173;28;62025;-81
2022/10/08 13:02:30;;;;;;;;;0.67;0.67;;;;;;;;5037680;28;64113;-80
2022/10/08 13:04:56;;;;;;;;;1.33;0.00;;;;;;;;5055630;28;61823;-81
2022/10/08 13:07:28;;;;;;;;;0.00;0.00;;;;;;;;5057377;28;61797;-76
2022/10/08 13:09:55;;;;;;;;;1.00;0.00;;;;;;;;5057051;28;61903;-79
2022/10/08 13:12:20;;;;;;;;;0.00;0.00;;;;;;;;5037791;28;63686;-76
2022/10/08 13:14:56;;;;;;;;;0.33;0.33;;;;;;;;5041784;28;61911;-77
2022/10/08 13:17:32;;;;;;;;;0.00;0.00;;;;;;;;5039579;28;61835;-76
2022/10/08 13:20:10;;;;;;;;;2.67;0.00;;;;;;;;5023140;28;62224;-76
2022/10/08 13:22:35;;;;;;;;;1.00;1.00;;;;;;;;5040958;28;61876;-77
2022/10/08 13:25:01;;;;;;;;;0.67;0.67;;;;;;;;5023097;28;61751;-82
2022/10/08 13:27:27;;;;;;;;;0.00;0.00;;;;;;;;5024290;28;61795;-80
2022/10/08 13:29:54;;;;;;;;;0.00;0.00;;;;;;;;5041946;28;62204;-77
2022/10/08 13:32:19;;;;;;;;;0.00;0.00;;;;;;;;5040668;28;62087;-78
2022/10/08 13:34:46;;;;;;;;;2.67;0.00;;;;;;;;5023145;28;62494;-77
2022/10/08 13:37:14;;;;;;;;;0.67;0.00;;;;;;;;5041781;28;61919;-78
2022/10/08 13:39:49;;;;;;;;;2.00;0.33;;;;;;;;5023468;28;62185;-78
2022/10/08 13:42:15;;;;;;;;;1.33;1.00;;;;;;;;5040678;28;61830;-78
2022/10/08 13:44:41;;;;;;;;;0.33;0.33;;;;;;;;5038753;28;61808;-80
2022/10/08 13:47:14;;;;;;;;;1.33;0.67;;;;;;;;5040821;28;61816;-81
2022/10/08 13:49:39;;;;;;;;;0.67;0.67;;;;;;;;5041190;28;61882;-78
2022/10/08 13:52:04;;;;;;;;;0.00;0.00;;;;;;;;5039952;28;62022;-81
2022/10/08 13:54:30;;;;;;;;;0.00;0.00;;;;;;;;5023063;28;62035;-84
2022/10/08 13:56:56;;;;;;;;;2.00;1.00;;;;;;;;5022846;28;62172;-84
2022/10/08 13:59:22;;;;;;;;;0.67;0.67;;;;;;;;5041573;28;61743;-84
2022/10/08 14:01:47;;;;;;;;;0.67;0.67;;;;;;;;5040748;28;62631;-84
2022/10/08 14:04:13;;;;;;;;;2.67;0.00;;;;;;;;5041987;28;61830;-82
2022/10/08 14:06:40;;;;;;;;;0.00;0.00;;;;;;;;5042467;28;61837;-81
2022/10/08 14:09:07;;;;;;;;;0.00;0.00;;;;;;;;5023986;28;61827;-81
2022/10/08 14:11:32;;;;;;;;;1.00;0.00;;;;;;;;5042044;28;61916;-83
2022/10/08 14:13:57;;;;;;;;;1.00;1.00;;;;;;;;5024147;28;61723;-84
2022/10/08 14:16:23;;;;;;;;;0.00;0.00;;;;;;;;5024248;28;61769;-85
2022/10/08 14:18:48;;;;;;;;;0.67;0.67;;;;;;;;5042349;28;62730;-78
2022/10/08 14:21:14;;;;;;;;;1.33;0.00;;;;;;;;5041489;28;62661;-79
2022/10/08 14:23:39;;;;;;;;;0.67;0.00;;;;;;;;5027284;28;61883;-79
2022/10/08 14:26:05;;;;;;;;;0.00;0.00;;;;;;;;5050129;28;61727;-78
2022/10/08 14:28:30;;;;;;;;;0.00;0.00;;;;;;;;5024676;28;62096;-79
2022/10/08 14:30:56;;;;;;;;;0.00;0.00;;;;;;;;5041318;28;61889;-82
2022/10/08 14:33:21;;;;;;;;;0.33;0.00;;;;;;;;5042151;28;61918;-80
2022/10/08 14:35:50;;;;;;;;;0.00;0.00;;;;;;;;5042175;28;61782;-82
2022/10/08 14:38:15;;;;;;;;;0.00;0.00;;;;;;;;5026501;28;62138;-81
2022/10/08 14:40:40;;;;;;;;;0.00;0.00;;;;;;;;5041400;28;62603;-79
2022/10/08 14:43:06;;;;;;;;;0.00;0.00;;;;;;;;5046519;28;61975;-79
2022/10/08 14:45:31;;;;;;;;;0.00;0.00;;;;;;;;5051219;28;62025;-79
2022/10/08 14:47:56;;;;;;;;;0.00;0.00;;;;;;;;5054354;28;61934;-76
2022/10/08 14:50:22;;;;;;;;;0.00;0.00;;;;;;;;5048608;28;62583;-79
2022/10/08 14:52:47;;;;;;;;;0.67;0.00;;;;;;;;5032175;28;61929;-79